createdAt,value
2022-10-10T08:30:35.159Z,2.40
2022-10-10T08:33:01.573Z,2.30
2022-10-10T08:35:27.883Z,3.17
2022-10-10T08:37:54.758Z,2.33
2022-10-10T08:40:21.828Z,3.13
2022-10-10T08:42:52.841Z,2.45
2022-10-10T08:45:26.939Z,2.80
2022-10-10T08:48:07.174Z,2.08
2022-10-10T08:53:08.130Z,2.53
2022-10-10T08:55:35.597Z,2.22
2022-10-10T08:58:06.936Z,1.80
2022-10-10T09:00:37.689Z,2.42
2022-10-10T09:03:06.467Z,2.80
2022-10-10T09:05:35.926Z,2.25
2022-10-10T09:08:05.320Z,1.80
2022-10-10T09:10:55.302Z,2.83
2022-10-10T09:15:54.671Z,2.22
2022-10-10T09:18:20.910Z,1.88
2022-10-10T09:20:55.376Z,1.58
2022-10-10T09:23:41.214Z,1.95
2022-10-10T09:26:11.502Z,2.33
2022-10-10T09:28:38.274Z,1.95
2022-10-10T09:31:07.886Z,2.05
2022-10-10T09:33:42.778Z,2.20
2022-10-10T09:36:14.551Z,1.45
2022-10-10T09:38:49.777Z,1.58
2022-10-10T09:41:22.071Z,2.13
2022-10-10T09:43:48.473Z,2.08
2022-10-10T09:46:14.791Z,2.33
2022-10-10T09:48:41.841Z,1.88
2022-10-10T09:51:18.263Z,1.65
2022-10-10T09:53:45.741Z,1.77
2022-10-10T09:56:15.989Z,2.00
2022-10-10T09:58:43.569Z,1.80
2022-10-10T10:01:12.265Z,1.50
2022-10-10T10:03:38.698Z,1.65
2022-10-10T10:06:05.055Z,1.52
2022-10-10T10:08:32.474Z,1.73
2022-10-10T10:10:59.588Z,1.98
2022-10-10T10:13:28.518Z,2.20
2022-10-10T10:15:59.782Z,1.90
2022-10-10T10:18:30.065Z,1.65
2022-10-10T10:21:02.565Z,1.55
2022-10-10T10:23:32.797Z,1.25
2022-10-10T10:26:02.202Z,2.63
2022-10-10T10:28:29.026Z,1.60
2022-10-10T10:30:56.648Z,2.13
2022-10-10T10:33:35.041Z,1.52
2022-10-10T10:36:09.111Z,1.55
2022-10-10T10:38:35.465Z,2.40
2022-10-10T10:41:01.761Z,1.98
2022-10-10T10:43:40.325Z,3.72
2022-10-10T10:46:06.580Z,1.98
2022-10-10T10:48:39.050Z,1.13
2022-10-10T10:51:22.994Z,1.63
2022-10-10T10:53:57.676Z,1.55
2022-10-10T10:56:30.318Z,1.40
2022-10-10T10:59:30.389Z,2.00
2022-10-10T11:02:09.305Z,1.63
2022-10-10T11:05:23.665Z,1.80
2022-10-10T11:07:55.469Z,1.50
2022-10-10T11:10:24.742Z,1.52
2022-10-10T11:12:54.065Z,1.55
2022-10-10T11:15:54.195Z,1.08
2022-10-10T11:18:35.194Z,0.60
2022-10-10T11:21:08.910Z,1.48
2022-10-10T11:23:39.996Z,1.02
2022-10-10T11:26:08.024Z,0.68
2022-10-10T11:28:49.158Z,0.95
2022-10-10T11:31:26.554Z,4.00
2022-10-10T11:33:56.327Z,1.83
2022-10-10T11:36:25.848Z,1.30
2022-10-10T11:38:54.795Z,1.20
2022-10-10T11:41:27.039Z,1.88
2022-10-10T11:43:56.074Z,1.63
2022-10-10T11:46:41.209Z,0.55
2022-10-10T11:49:07.549Z,1.30
2022-10-10T11:51:46.026Z,1.73
2022-10-10T11:54:28.940Z,2.28
2022-10-10T11:56:58.519Z,1.80
2022-10-10T11:59:28.696Z,1.33
2022-10-10T12:04:36.218Z,3.33
2022-10-10T12:07:15.106Z,2.55
2022-10-10T12:09:43.598Z,2.07
2022-10-10T12:12:15.762Z,3.67
2022-10-10T12:14:44.811Z,1.23
2022-10-10T12:17:21.411Z,2.80
2022-10-10T12:19:48.499Z,1.55
2022-10-10T12:22:32.727Z,1.73
2022-10-10T12:25:05.159Z,1.65
2022-10-10T12:27:43.784Z,1.27
2022-10-10T12:30:14.959Z,1.38
2022-10-10T12:32:41.193Z,1.52
2022-10-10T12:38:27.809Z,0.75
2022-10-10T12:40:56.865Z,1.25
2022-10-10T12:43:37.289Z,1.05
2022-10-10T12:46:08.949Z,1.33
2022-10-10T12:48:35.748Z,1.08
2022-10-10T12:51:02.255Z,1.48
2022-10-10T12:53:31.413Z,2.95
2022-10-10T12:56:00.698Z,1.15
2022-10-10T12:58:28.908Z,1.00
2022-10-10T13:00:56.286Z,1.00
2022-10-10T13:03:28.167Z,2.30
2022-10-10T13:05:54.860Z,0.95
2022-10-10T13:08:24.709Z,1.15
2022-10-10T13:11:03.716Z,1.65
2022-10-10T13:13:30.528Z,1.27
2022-10-10T13:15:57.950Z,3.05
2022-10-10T13:18:34.753Z,1.02
2022-10-10T13:21:02.082Z,2.53
2022-10-10T13:23:28.617Z,0.95
2022-10-10T13:25:54.988Z,1.65
2022-10-10T13:28:21.773Z,1.45
2022-10-10T13:30:49.397Z,2.30
2022-10-10T13:33:22.780Z,1.48
2022-10-10T13:35:50.264Z,1.98
2022-10-10T13:38:18.123Z,1.35
2022-10-10T13:40:44.693Z,0.98
2022-10-10T13:43:15.007Z,1.95
2022-10-10T13:45:49.827Z,1.50
2022-10-10T13:48:19.188Z,1.27
2022-10-10T13:50:48.745Z,1.42
2022-10-10T13:53:26.290Z,2.47
2022-10-10T13:56:12.830Z,0.95
2022-10-10T13:58:42.119Z,1.77
2022-10-10T14:01:20.972Z,1.83
2022-10-10T14:03:48.413Z,2.08
2022-10-10T14:06:19.321Z,1.85
2022-10-10T14:08:46.311Z,1.15
2022-10-10T14:11:15.410Z,1.38
2022-10-10T14:13:45.875Z,0.98
2022-10-10T14:16:15.187Z,1.15
2022-10-10T14:18:41.492Z,1.73
2022-10-10T14:21:08.536Z,1.10
2022-10-10T14:23:35.378Z,1.73
2022-10-10T14:26:01.937Z,1.35
2022-10-10T14:28:29.516Z,1.65
2022-10-10T14:30:56.215Z,2.58
2022-10-10T14:33:22.505Z,1.55
2022-10-10T14:35:49.743Z,1.65
2022-10-10T14:38:16.640Z,1.35
2022-10-10T14:40:43.839Z,0.95
2022-10-10T14:43:10.102Z,1.02
2022-10-10T14:45:36.626Z,1.83
2022-10-10T14:48:03.119Z,1.15
2022-10-10T14:50:34.923Z,1.50
2022-10-10T14:53:01.256Z,1.15
2022-10-10T14:55:27.572Z,1.67
2022-10-10T14:57:53.857Z,1.10
2022-10-10T15:00:21.668Z,1.70
2022-10-10T15:02:48.033Z,1.45
2022-10-10T15:05:15.195Z,2.00
2022-10-10T15:07:41.686Z,3.10
2022-10-10T15:10:32.684Z,2.05
2022-10-10T15:12:55.107Z,1.25
2022-10-10T15:15:21.395Z,1.13
2022-10-10T15:17:47.712Z,1.83
2022-10-10T15:20:14.109Z,1.48
2022-10-10T15:22:40.411Z,2.17
2022-10-10T15:25:07.595Z,1.42
2022-10-10T15:27:34.140Z,1.42
2022-10-10T15:30:00.670Z,1.85
2022-10-10T15:32:27.051Z,1.48
2022-10-10T15:34:53.799Z,1.67
2022-10-10T15:37:20.129Z,1.05
2022-10-10T15:39:46.824Z,3.22
2022-10-10T15:42:17.461Z,3.85
2022-10-10T15:44:48.700Z,1.58
2022-10-10T15:47:15.583Z,4.32
2022-10-10T15:49:41.956Z,1.27
2022-10-10T15:52:08.647Z,3.13
2022-10-10T15:54:34.922Z,2.92
2022-10-10T15:57:01.206Z,2.33
2022-10-10T15:59:27.488Z,1.85
2022-10-10T16:01:55.398Z,2.28
2022-10-10T16:04:22.575Z,2.03
2022-10-10T16:06:54.410Z,1.52
2022-10-10T16:09:35.627Z,2.55
2022-10-10T16:12:02.082Z,1.83
2022-10-10T16:14:28.604Z,2.08
2022-10-10T16:16:54.951Z,2.35
2022-10-10T16:19:21.362Z,2.25
2022-10-10T16:21:47.952Z,2.08
2022-10-10T16:24:14.360Z,1.60
2022-10-10T16:26:40.727Z,2.78
2022-10-10T16:29:07.704Z,2.47
2022-10-10T16:31:39.079Z,3.15
2022-10-10T16:34:06.271Z,1.67
2022-10-10T16:36:34.011Z,2.92
2022-10-10T16:39:00.521Z,2.80
2022-10-10T16:41:46.627Z,2.30
2022-10-10T16:44:13.763Z,2.88
2022-10-10T16:46:40.030Z,2.42
2022-10-10T16:49:06.310Z,2.45
2022-10-10T16:51:32.695Z,2.92
2022-10-10T16:54:00.581Z,2.60
2022-10-10T16:56:26.869Z,2.45
2022-10-10T16:58:53.187Z,2.60
2022-10-10T17:01:20.857Z,3.35
2022-10-10T17:03:48.153Z,3.50
2022-10-10T17:06:19.145Z,2.90
2022-10-10T17:08:46.349Z,3.40
2022-10-10T17:11:14.490Z,2.47
2022-10-10T17:13:41.673Z,2.55
2022-10-10T17:16:44.949Z,2.30
2022-10-10T17:18:55.498Z,3.63
2022-10-10T17:21:22.683Z,2.92
2022-10-10T17:23:49.902Z,3.72
2022-10-10T17:26:17.352Z,4.05
2022-10-10T17:28:44.334Z,3.47
2022-10-10T17:31:12.453Z,4.93
2022-10-10T17:33:39.224Z,4.63
2022-10-10T17:36:06.903Z,4.47
2022-10-10T17:38:40.130Z,4.35
2022-10-10T17:41:07.643Z,4.72
2022-10-10T17:43:34.579Z,4.57
2022-10-10T17:46:22.031Z,3.80
2022-10-10T17:48:47.966Z,3.60
2022-10-10T17:51:15.184Z,5.05
2022-10-10T17:53:41.592Z,4.72
2022-10-10T17:56:22.757Z,4.55
2022-10-10T17:58:50.234Z,4.22
2022-10-10T18:01:17.347Z,4.30
2022-10-10T18:03:43.918Z,4.40
2022-10-10T18:06:11.707Z,4.22
2022-10-10T18:08:38.101Z,4.20
2022-10-10T18:11:06.668Z,5.97
2022-10-10T18:13:34.867Z,7.35
2022-10-10T18:16:08.603Z,5.30
2022-10-10T18:18:35.768Z,6.25
2022-10-10T18:21:04.034Z,8.02
2022-10-10T18:23:31.017Z,4.97
2022-10-10T18:26:04.874Z,5.20
2022-10-10T18:28:32.090Z,5.13
2022-10-10T18:30:58.410Z,5.30
2022-10-10T18:33:25.047Z,5.88
2022-10-10T18:35:51.337Z,5.13
2022-10-10T18:38:17.598Z,4.68
2022-10-10T18:40:43.901Z,5.35
2022-10-10T18:43:10.833Z,8.55
2022-10-10T18:45:37.112Z,9.07
2022-10-10T18:48:03.430Z,9.05
2022-10-10T18:50:29.730Z,10.20
2022-10-10T18:52:57.724Z,4.70
2022-10-10T18:55:30.067Z,4.93
2022-10-10T18:57:57.556Z,4.20
2022-10-10T19:00:25.844Z,5.22
2022-10-10T19:02:53.086Z,4.68
2022-10-10T19:05:19.579Z,3.92
2022-10-10T19:07:45.921Z,4.05
2022-10-10T19:10:12.207Z,4.65
2022-10-10T19:12:38.482Z,5.30
2022-10-10T19:15:04.835Z,2.47
2022-10-10T19:17:32.054Z,3.28
2022-10-10T19:19:58.330Z,2.78
2022-10-10T19:22:24.644Z,3.58
2022-10-10T19:24:54.671Z,3.30
2022-10-10T19:29:49.663Z,2.08
2022-10-10T19:32:16.201Z,2.47
2022-10-10T19:34:43.053Z,2.75
2022-10-10T19:37:09.337Z,2.38
2022-10-10T19:39:35.638Z,2.90
2022-10-10T19:42:01.915Z,2.35
2022-10-10T19:44:28.229Z,3.10
2022-10-10T19:46:54.630Z,2.75
2022-10-10T19:49:21.211Z,3.83
2022-10-10T19:51:47.497Z,3.17
2022-10-10T19:54:13.818Z,2.78
2022-10-10T19:56:40.068Z,4.07
2022-10-10T19:59:06.395Z,2.25
2022-10-10T20:01:33.054Z,2.33
2022-10-10T20:03:59.640Z,2.85
2022-10-10T20:06:26.530Z,2.22
2022-10-10T20:08:52.902Z,2.88
2022-10-10T20:11:20.263Z,2.55
2022-10-10T20:13:47.083Z,2.72
2022-10-10T20:16:13.636Z,2.30
2022-10-10T20:18:41.184Z,2.92
2022-10-10T20:21:12.035Z,3.28
2022-10-10T20:23:41.874Z,3.60
2022-10-10T20:26:09.021Z,2.83
2022-10-10T20:28:35.467Z,3.55
2022-10-10T20:31:01.846Z,3.50
2022-10-10T20:33:28.116Z,4.68
2022-10-10T20:35:56.236Z,4.70
2022-10-10T20:38:22.591Z,4.22
2022-10-10T20:40:48.901Z,4.28
2022-10-10T20:43:16.410Z,4.70
2022-10-10T20:45:42.723Z,3.88
2022-10-10T20:48:09.846Z,4.97
2022-10-10T20:50:36.697Z,7.20
2022-10-10T20:53:03.229Z,5.68
2022-10-10T20:55:29.803Z,5.38
2022-10-10T20:57:56.089Z,6.22
2022-10-10T21:00:22.390Z,6.53
2022-10-10T21:02:49.370Z,6.90
2022-10-10T21:05:16.159Z,7.43
2022-10-10T21:07:42.424Z,6.30
2022-10-10T21:10:09.015Z,6.97
2022-10-10T21:12:35.289Z,7.85
2022-10-10T21:15:02.962Z,7.15
2022-10-10T21:17:29.423Z,6.68
2022-10-10T21:19:56.713Z,9.10
2022-10-10T21:22:23.031Z,6.90
2022-10-10T21:24:49.408Z,7.32
2022-10-10T21:27:15.914Z,7.68
2022-10-10T21:29:42.251Z,4.10
2022-10-10T21:32:08.551Z,1.60
2022-10-10T21:34:34.849Z,1.33
2022-10-10T21:37:01.111Z,1.45
2022-10-10T21:39:27.387Z,1.20
2022-10-10T21:41:53.699Z,1.65
2022-10-10T21:44:20.606Z,1.90
2022-10-10T21:46:46.895Z,2.22
2022-10-10T21:49:13.183Z,3.20
2022-10-10T21:51:40.942Z,1.45
2022-10-10T21:54:07.817Z,1.73
2022-10-10T21:56:34.486Z,1.60
2022-10-10T21:59:01.699Z,1.90
2022-10-10T22:01:28.253Z,2.90
2022-10-10T22:03:55.351Z,1.65
2022-10-10T22:06:22.871Z,2.10
2022-10-10T22:08:50.006Z,1.83
2022-10-10T22:11:17.905Z,1.85
2022-10-10T22:13:44.203Z,1.83
2022-10-10T22:16:10.952Z,3.17
2022-10-10T22:18:37.556Z,1.92
2022-10-10T22:21:04.873Z,3.35
2022-10-10T22:23:31.288Z,2.08
2022-10-10T22:25:57.587Z,2.50
2022-10-10T22:28:23.888Z,2.58
2022-10-10T22:30:50.214Z,2.08
2022-10-10T22:33:16.535Z,2.17
2022-10-10T22:35:43.200Z,1.75
2022-10-10T22:38:09.468Z,2.90
2022-10-10T22:40:35.787Z,2.63
2022-10-10T22:43:02.126Z,2.85
2022-10-10T22:45:29.283Z,2.85
2022-10-10T22:47:55.797Z,2.55
2022-10-10T22:50:22.094Z,2.33
2022-10-10T22:52:48.565Z,2.75
2022-10-10T22:55:18.462Z,2.45
2022-10-10T22:57:45.685Z,2.92
2022-10-10T23:00:12.471Z,1.98
2022-10-10T23:02:38.768Z,2.60
2022-10-10T23:05:05.389Z,2.63
2022-10-10T23:07:31.663Z,2.03
2022-10-10T23:09:58.046Z,2.67
2022-10-10T23:12:24.430Z,2.75
2022-10-10T23:14:50.768Z,1.85
2022-10-10T23:17:17.038Z,2.63
2022-10-10T23:19:43.329Z,4.18
2022-10-10T23:22:09.682Z,2.63
2022-10-10T23:24:39.515Z,2.50
2022-10-10T23:27:05.807Z,1.77
2022-10-10T23:29:32.698Z,2.03
2022-10-10T23:31:59.084Z,2.63
2022-10-10T23:34:25.364Z,3.55
2022-10-10T23:36:51.691Z,3.33
2022-10-10T23:39:18.523Z,3.00
2022-10-10T23:41:44.802Z,5.30
2022-10-10T23:44:11.215Z,3.55
2022-10-10T23:46:37.471Z,3.17
2022-10-10T23:49:03.734Z,2.70
2022-10-10T23:51:30.122Z,2.92
2022-10-10T23:53:56.540Z,4.20
2022-10-10T23:56:22.808Z,2.80
2022-10-10T23:58:49.151Z,2.67
